Time;durP1;ratioP1;P1;durP2;ratioP2;P2;SDS_P1;SDS_P2;PMS_P1;PMS_P2;Temp;Humidity;BMP_temperature;BMP_pressure;BME280_temperature;BME280_humidity;BME280_pressure;Samples;Min_cycle;Max_cycle;Signal;HPM_P1;HPM_P2
2022/11/17 00:00:09;;;;;;;26.75;16.42;;;8.80;99.90;;;;;;5112770;28;20035;-68
2022/11/17 00:02:35;;;;;;;23.77;15.23;;;8.80;99.90;;;;;;5112598;28;20074;-68
2022/11/17 00:05:00;;;;;;;27.15;16.50;;;8.80;99.90;;;;;;5112694;28;20032;-68
2022/11/17 00:07:26;;;;;;;22.27;14.93;;;8.80;99.90;;;;;;5112678;28;20097;-68
2022/11/17 00:09:51;;;;;;;26.80;16.95;;;8.80;99.90;;;;;;5112594;28;20089;-68
2022/11/17 00:15:01;;;;;;;23.77;17.15;;;8.80;99.90;;;;;;5112521;28;20047;-68
2022/11/17 00:17:26;;;;;;;25.00;16.38;;;8.80;99.90;;;;;;5112528;28;20047;-68
2022/11/17 00:22:36;;;;;;;21.60;14.93;;;8.80;99.90;;;;;;5112538;28;20048;-68
2022/11/17 00:25:02;;;;;;;22.00;15.48;;;8.80;99.90;;;;;;5112425;28;20506;-68
2022/11/17 00:27:27;;;;;;;21.95;15.45;;;8.80;99.90;;;;;;5112404;28;20039;-68
2022/11/17 00:29:53;;;;;;;21.73;14.95;;;8.80;99.90;;;;;;5113649;28;20040;-68
2022/11/17 00:35:04;;;;;;;21.42;14.60;;;8.80;99.90;;;;;;5112622;28;20122;-68
2022/11/17 00:37:34;;;;;;;20.95;14.02;;;8.80;99.90;;;;;;5112372;28;20051;-68
2022/11/17 00:40:00;;;;;;;18.60;13.32;;;8.80;99.90;;;;;;5112587;28;20039;-68
2022/11/17 00:42:25;;;;;;;22.27;14.23;;;8.80;99.90;;;;;;5111988;28;20395;-68
2022/11/17 00:44:51;;;;;;;17.60;13.68;;;8.80;99.90;;;;;;5112215;28;20118;-68
2022/11/17 00:47:16;;;;;;;20.35;13.63;;;8.80;99.90;;;;;;5113476;28;20058;-68
2022/11/17 00:49:42;;;;;;;19.55;13.50;;;8.80;99.90;;;;;;5113459;28;20502;-68
2022/11/17 00:52:08;;;;;;;15.48;12.43;;;8.80;99.90;;;;;;5112116;28;20575;-68
2022/11/17 00:54:34;;;;;;;18.15;12.88;;;8.80;99.90;;;;;;5116256;28;20127;-68
2022/11/17 00:57:00;;;;;;;16.58;12.88;;;8.80;99.90;;;;;;5116577;28;20119;-68
2022/11/17 00:59:25;;;;;;;20.60;13.73;;;8.80;99.90;;;;;;5116231;28;20046;-68
2022/11/17 01:01:51;;;;;;;16.55;12.32;;;8.80;99.90;;;;;;5116047;28;20118;-68
2022/11/17 01:04:17;;;;;;;14.30;11.90;;;8.80;99.90;;;;;;5117441;28;20047;-68
2022/11/17 01:06:48;;;;;;;18.50;12.48;;;8.80;99.90;;;;;;5116171;28;20031;-68
2022/11/17 01:09:20;;;;;;;14.70;11.90;;;8.80;99.90;;;;;;5116055;28;20039;-68
2022/11/17 01:11:47;;;;;;;14.45;11.93;;;8.80;99.90;;;;;;5116043;28;20048;-68
2022/11/17 01:14:16;;;;;;;14.98;12.20;;;8.80;99.90;;;;;;5116021;28;20044;-68
2022/11/17 01:16:42;;;;;;;14.48;11.38;;;8.80;99.90;;;;;;5115895;28;20492;-68
2022/11/17 01:19:10;;;;;;;16.45;11.25;;;8.80;99.90;;;;;;5116053;28;20044;-68
2022/11/17 01:21:36;;;;;;;14.27;11.82;;;8.80;99.90;;;;;;5115683;28;20070;-68
2022/11/17 01:24:02;;;;;;;18.15;11.88;;;8.80;99.90;;;;;;5115773;28;20121;-68
2022/11/17 01:26:32;;;;;;;18.52;11.90;;;8.80;99.90;;;;;;5117068;28;20035;-68
2022/11/17 01:28:58;;;;;;;15.57;11.13;;;8.80;99.90;;;;;;5115990;28;20100;-68
2022/11/17 01:31:30;;;;;;;13.98;11.38;;;8.80;99.90;;;;;;5116845;28;20446;-68
2022/11/17 01:33:56;;;;;;;14.85;11.25;;;8.80;99.90;;;;;;5115643;28;20128;-68
2022/11/17 01:36:25;;;;;;;16.80;11.57;;;8.80;99.90;;;;;;5115615;28;20069;-68
2022/11/17 01:38:51;;;;;;;15.60;11.13;;;8.80;99.90;;;;;;5115763;28;20082;-68
2022/11/17 01:41:27;;;;;;;13.18;11.07;;;8.80;99.90;;;;;;5115729;28;20525;-68
2022/11/17 01:43:55;;;;;;;14.23;10.82;;;8.80;99.90;;;;;;5115740;28;20058;-68
2022/11/17 01:46:36;;;;;;;14.70;10.70;;;8.80;99.90;;;;;;5115623;28;20097;-68
2022/11/17 01:49:24;;;;;;;14.10;11.32;;;8.80;99.90;;;;;;5115656;28;20046;-68
2022/11/17 01:51:54;;;;;;;15.75;10.65;;;8.80;99.90;;;;;;5115530;28;20035;-68
2022/11/17 01:54:24;;;;;;;15.25;9.70;;;8.80;99.90;;;;;;5115270;28;20561;-68
2022/11/17 01:56:56;;;;;;;16.42;10.90;;;8.80;99.90;;;;;;5115188;28;20039;-68
2022/11/17 01:59:30;;;;;;;12.95;10.45;;;8.80;99.90;;;;;;5115199;28;20047;-68
2022/11/17 02:01:56;;;;;;;12.98;10.27;;;8.80;99.90;;;;;;5114990;28;20048;-68
2022/11/17 02:04:32;;;;;;;13.45;10.27;;;8.80;99.90;;;;;;5114544;28;20046;-68
2022/11/17 02:07:21;;;;;;;13.95;10.25;;;8.80;99.90;;;;;;5115054;28;20507;-67
2022/11/17 02:09:47;;;;;;;15.85;10.27;;;8.80;99.90;;;;;;5114968;28;20043;-67
2022/11/17 02:12:15;;;;;;;16.10;10.25;;;8.80;99.90;;;;;;5114829;28;20044;-68
2022/11/17 02:14:40;;;;;;;14.82;10.40;;;8.80;99.90;;;;;;5114797;28;20462;-68
2022/11/17 02:17:08;;;;;;;15.15;11.18;;;8.80;99.90;;;;;;5115020;28;20123;-68
2022/11/17 02:19:39;;;;;;;14.30;10.77;;;8.80;99.90;;;;;;5114763;28;20096;-68
2022/11/17 02:22:43;;;;;;;17.13;10.55;;;8.80;99.90;;;;;;5114595;28;20434;-68
2022/11/17 02:25:29;;;;;;;14.15;10.25;;;8.80;99.90;;;;;;5114656;28;20085;-68
2022/11/17 02:28:27;;;;;;;15.25;10.35;;;8.80;99.90;;;;;;5114690;28;20173;-68
2022/11/17 02:31:33;;;;;;;17.60;10.95;;;8.80;99.90;;;;;;5114589;28;20035;-68
2022/11/17 02:34:13;;;;;;;17.67;10.98;;;8.80;99.90;;;;;;5114472;28;20044;-68
2022/11/17 02:37:02;;;;;;;15.07;11.55;;;8.70;99.90;;;;;;5114503;28;20050;-68
2022/11/17 02:39:46;;;;;;;14.75;11.57;;;8.70;99.90;;;;;;5114642;28;20079;-68
2022/11/17 02:45:26;;;;;;;14.43;11.43;;;8.70;99.90;;;;;;5114222;28;20082;-68
2022/11/17 02:47:55;;;;;;;16.15;12.07;;;8.60;99.90;;;;;;5114241;28;20555;-68
2022/11/17 02:50:25;;;;;;;16.25;11.65;;;8.60;99.90;;;;;;5114437;28;20048;-68
2022/11/17 02:52:50;;;;;;;16.15;12.07;;;8.60;99.90;;;;;;5097331;28;20050;-68
2022/11/17 02:55:16;;;;;;;17.60;11.50;;;8.60;99.90;;;;;;5114310;28;20044;-68
2022/11/17 02:57:42;;;;;;;15.52;12.52;;;8.60;99.90;;;;;;5113965;28;20039;-68
2022/11/17 03:00:17;;;;;;;17.52;13.13;;;8.50;99.90;;;;;;5113968;28;20043;-68
2022/11/17 03:02:49;;;;;;;14.30;11.80;;;8.60;99.90;;;;;;5113799;28;20036;-68
2022/11/17 03:05:40;;;;;;;15.80;12.40;;;8.50;99.90;;;;;;5113917;28;20047;-68
2022/11/17 03:08:34;;;;;;;18.73;12.77;;;8.50;99.90;;;;;;5114194;28;20043;-68
2022/11/17 03:11:05;;;;;;;16.85;13.00;;;8.50;99.90;;;;;;5113707;28;20046;-68
2022/11/17 03:13:41;;;;;;;17.42;12.30;;;8.50;99.90;;;;;;5113962;28;20075;-68
2022/11/17 03:16:23;;;;;;;15.82;12.27;;;8.40;99.90;;;;;;5112785;28;20053;-68
2022/11/17 03:19:18;;;;;;;18.52;11.85;;;8.50;99.90;;;;;;5113895;28;20092;-68
2022/11/17 03:21:54;;;;;;;16.15;12.43;;;8.50;99.90;;;;;;5113677;28;20048;-68
2022/11/17 03:24:23;;;;;;;16.30;12.23;;;8.40;99.90;;;;;;5113744;28;20047;-68
2022/11/17 03:26:54;;;;;;;17.88;12.07;;;8.40;99.90;;;;;;5113424;28;20036;-68
2022/11/17 03:29:23;;;;;;;16.10;11.57;;;8.40;99.90;;;;;;5113430;28;20040;-68
2022/11/17 03:31:55;;;;;;;13.68;11.43;;;8.40;99.90;;;;;;5113231;28;20043;-68
2022/11/17 03:34:23;;;;;;;13.40;11.03;;;8.40;99.90;;;;;;5113319;28;20040;-68
2022/11/17 03:36:54;;;;;;;16.45;11.50;;;8.40;99.90;;;;;;5113239;28;20054;-68
2022/11/17 03:39:26;;;;;;;17.60;12.45;;;8.40;99.90;;;;;;5113219;28;20456;-68
2022/11/17 03:41:58;;;;;;;15.80;11.45;;;8.40;99.90;;;;;;5113141;28;20396;-68
2022/11/17 03:44:27;;;;;;;12.95;10.15;;;8.30;99.90;;;;;;5113403;28;20049;-67
2022/11/17 03:46:54;;;;;;;13.02;9.80;;;8.40;99.90;;;;;;5113248;28;20479;-68
2022/11/17 03:49:37;;;;;;;13.65;10.32;;;8.30;99.90;;;;;;5112961;28;20071;-68
2022/11/17 03:52:03;;;;;;;13.15;9.85;;;8.30;99.90;;;;;;5113120;28;20496;-68
2022/11/17 03:54:29;;;;;;;11.85;9.65;;;8.30;99.90;;;;;;5114448;28;20039;-68
2022/11/17 03:57:20;;;;;;;14.95;10.32;;;8.30;99.90;;;;;;5112854;28;20046;-68
2022/11/17 04:00:07;;;;;;;11.10;9.82;;;8.30;99.90;;;;;;5096079;28;20098;-68
2022/11/17 04:02:32;;;;;;;12.95;10.20;;;8.30;99.90;;;;;;5112651;28;20051;-68
2022/11/17 04:05:07;;;;;;;11.93;9.63;;;8.30;99.90;;;;;;5113001;28;20047;-68
2022/11/17 04:07:41;;;;;;;12.05;9.98;;;8.20;99.90;;;;;;5112705;28;20047;-68
2022/11/17 04:10:09;;;;;;;11.60;10.45;;;8.30;99.90;;;;;;5112639;28;20049;-68
2022/11/17 04:18:04;;;;;;;14.27;10.93;;;8.20;99.90;;;;;;5112567;28;20043;-67
2022/11/17 04:20:34;;;;;;;10.88;9.20;;;8.20;99.90;;;;;;5112540;28;20047;-67
2022/11/17 04:23:10;;;;;;;11.10;9.55;;;8.20;99.90;;;;;;5112328;28;20111;-67
2022/11/17 04:28:36;;;;;;;11.50;9.20;;;8.20;99.90;;;;;;5112581;28;20047;-67
2022/11/17 04:31:07;;;;;;;10.07;9.05;;;8.20;99.90;;;;;;5112713;28;20078;-67
2022/11/17 04:33:34;;;;;;;11.43;9.63;;;8.20;99.90;;;;;;5112346;28;20044;-67
2022/11/17 04:36:01;;;;;;;9.93;8.93;;;8.20;99.90;;;;;;5113548;28;20079;-67
2022/11/17 04:38:26;;;;;;;10.60;9.18;;;8.20;99.90;;;;;;5114131;28;20050;-67
2022/11/17 04:43:37;;;;;;;11.48;8.57;;;8.20;99.90;;;;;;5112206;28;20047;-68
2022/11/17 04:46:03;;;;;;;9.52;8.52;;;8.10;99.90;;;;;;5112229;28;20050;-68
2022/11/17 04:48:29;;;;;;;9.90;8.82;;;8.10;99.90;;;;;;5112213;28;20044;-68
2022/11/17 04:50:55;;;;;;;11.52;9.18;;;8.10;99.90;;;;;;5112170;28;20168;-68
2022/11/17 04:53:22;;;;;;;10.10;8.45;;;8.10;99.90;;;;;;5113606;28;20156;-69
2022/11/17 04:55:47;;;;;;;9.05;8.02;;;8.10;99.90;;;;;;5112142;28;20119;-69
2022/11/17 04:58:13;;;;;;;9.20;8.23;;;8.10;99.90;;;;;;5112121;28;20181;-69
2022/11/17 05:00:39;;;;;;;8.80;7.80;;;8.10;99.90;;;;;;5112100;28;20163;-69
2022/11/17 05:03:04;;;;;;;8.75;7.78;;;8.10;99.90;;;;;;5112031;28;20049;-69
2022/11/17 05:05:30;;;;;;;8.88;7.63;;;8.10;99.90;;;;;;5112074;28;20042;-69
2022/11/17 05:07:55;;;;;;;8.40;7.45;;;8.10;99.90;;;;;;5112081;28;20114;-69
2022/11/17 05:13:20;;;;;;;10.10;8.02;;;8.10;99.90;;;;;;5113819;28;20036;-69
2022/11/17 05:13:20;;;;;;;9.68;7.90;;;8.10;99.90;;;;;;5111858;28;20503;-69
2022/11/17 05:18:31;;;;;;;9.15;8.20;;;8.00;99.90;;;;;;5111972;28;20047;-69
2022/11/17 05:21:04;;;;;;;8.10;7.30;;;8.00;99.90;;;;;;5113158;28;20040;-69
2022/11/17 05:26:13;;;;;;;8.85;7.93;;;8.00;99.90;;;;;;5111942;28;20044;-69
2022/11/17 05:28:39;;;;;;;8.52;7.63;;;7.90;99.90;;;;;;5112152;28;20036;-69
2022/11/17 05:31:05;;;;;;;10.07;7.95;;;7.90;99.90;;;;;;5112012;28;20489;-69
2022/11/17 05:33:30;;;;;;;8.93;7.15;;;7.90;99.90;;;;;;5111818;28;20522;-69
2022/11/17 05:35:56;;;;;;;9.75;7.55;;;7.90;99.90;;;;;;5113121;28;20039;-69
2022/11/17 05:38:21;;;;;;;9.40;7.72;;;7.90;99.90;;;;;;5112303;28;20493;-69
2022/11/17 05:40:47;;;;;;;9.50;8.55;;;7.80;99.90;;;;;;5117310;28;20484;-69
2022/11/17 05:43:12;;;;;;;9.35;7.65;;;7.80;99.90;;;;;;5116464;28;20104;-69
2022/11/17 05:45:38;;;;;;;9.75;8.70;;;7.80;99.90;;;;;;5115374;28;20222;-69
2022/11/17 05:48:04;;;;;;;8.93;7.90;;;7.80;99.90;;;;;;5116625;28;20044;-69
2022/11/17 05:50:29;;;;;;;9.65;8.18;;;7.70;99.90;;;;;;5115289;28;20118;-69
2022/11/17 05:52:55;;;;;;;9.52;7.88;;;7.70;99.90;;;;;;5115192;28;20047;-69
2022/11/17 05:55:20;;;;;;;10.25;7.90;;;7.70;99.90;;;;;;5117032;28;20036;-69
2022/11/17 05:57:47;;;;;;;8.90;7.65;;;7.70;99.90;;;;;;5115162;28;20036;-69
2022/11/17 06:00:15;;;;;;;9.75;7.60;;;7.60;99.90;;;;;;5115120;28;20047;-69
2022/11/17 06:02:47;;;;;;;8.27;7.32;;;7.60;99.90;;;;;;5114900;28;20549;-69
2022/11/17 06:05:13;;;;;;;9.25;8.27;;;7.60;99.90;;;;;;5115136;28;20044;-69
2022/11/17 06:07:38;;;;;;;8.18;7.35;;;7.60;99.90;;;;;;5114954;28;20122;-69
2022/11/17 06:10:05;;;;;;;7.70;6.70;;;7.60;99.90;;;;;;5114951;28;20061;-69
2022/11/17 06:12:30;;;;;;;8.43;7.60;;;7.60;99.90;;;;;;5114857;28;20500;-69
2022/11/17 06:14:56;;;;;;;7.60;6.80;;;7.60;99.90;;;;;;5114837;28;20075;-69
2022/11/17 06:17:31;;;;;;;8.27;6.88;;;7.50;99.90;;;;;;5114781;28;20086;-69
2022/11/17 06:20:12;;;;;;;8.52;7.35;;;7.50;99.90;;;;;;5114791;28;20047;-69
2022/11/17 06:22:38;;;;;;;7.88;6.78;;;7.50;99.90;;;;;;5116114;28;20119;-69
2022/11/17 06:25:07;;;;;;;7.57;6.78;;;7.50;99.90;;;;;;5116193;28;20078;-69
2022/11/17 06:27:34;;;;;;;8.00;6.82;;;7.50;99.90;;;;;;5114874;28;20412;-69
2022/11/17 06:30:02;;;;;;;8.43;7.47;;;7.40;99.90;;;;;;5114560;28;20040;-69
2022/11/17 06:32:28;;;;;;;8.85;7.80;;;7.40;99.90;;;;;;5114472;28;20040;-69
2022/11/17 06:34:54;;;;;;;7.95;7.15;;;7.40;99.90;;;;;;5114747;28;20082;-69
2022/11/17 06:37:20;;;;;;;7.90;6.70;;;7.40;99.90;;;;;;5115679;28;20048;-69
2022/11/17 06:39:45;;;;;;;7.53;6.72;;;7.40;99.90;;;;;;5114458;28;20039;-69
2022/11/17 06:42:11;;;;;;;8.98;6.63;;;7.40;99.90;;;;;;5114101;28;20126;-69
2022/11/17 06:44:37;;;;;;;6.93;6.22;;;7.30;99.90;;;;;;5114510;28;20039;-69
2022/11/17 06:47:02;;;;;;;6.80;6.10;;;7.30;99.90;;;;;;5114255;28;20593;-69
2022/11/17 06:49:28;;;;;;;8.68;7.22;;;7.30;99.90;;;;;;5113880;28;20035;-69
2022/11/17 06:51:54;;;;;;;6.72;6.03;;;7.40;99.90;;;;;;5113177;28;20039;-69
2022/11/17 06:54:19;;;;;;;7.40;6.60;;;7.40;99.90;;;;;;5114073;28;20043;-69
2022/11/17 06:56:45;;;;;;;7.35;6.13;;;7.40;99.90;;;;;;5114030;28;20069;-69
2022/11/17 06:59:11;;;;;;;6.63;5.88;;;7.40;99.90;;;;;;5115561;28;20028;-69
2022/11/17 07:01:36;;;;;;;6.57;5.90;;;7.40;99.90;;;;;;5113860;28;20477;-69
2022/11/17 07:04:02;;;;;;;7.55;6.35;;;7.40;99.90;;;;;;5113879;28;20097;-69
2022/11/17 07:06:28;;;;;;;6.45;5.68;;;7.40;99.90;;;;;;5113896;28;20036;-69
2022/11/17 07:08:53;;;;;;;7.10;5.95;;;7.40;99.90;;;;;;5113810;28;20043;-68
2022/11/17 07:11:19;;;;;;;6.70;5.63;;;7.40;99.90;;;;;;5113662;28;20067;-68
2022/11/17 07:13:44;;;;;;;6.18;5.57;;;7.40;99.90;;;;;;5113768;28;20043;-69
2022/11/17 07:16:13;;;;;;;7.22;6.45;;;7.30;99.90;;;;;;5096684;28;20040;-68
2022/11/17 07:18:42;;;;;;;6.50;5.88;;;7.30;99.90;;;;;;5114856;28;20165;-69
2022/11/17 07:21:10;;;;;;;6.72;5.90;;;7.40;99.90;;;;;;5114713;28;20039;-68
2022/11/17 07:23:37;;;;;;;7.60;5.70;;;7.30;99.90;;;;;;5113347;28;20035;-69
2022/11/17 07:26:04;;;;;;;7.95;6.20;;;7.40;99.90;;;;;;5113426;28;20439;-69
2022/11/17 07:28:31;;;;;;;5.68;5.18;;;7.30;99.90;;;;;;5113410;28;20084;-69
2022/11/17 07:31:01;;;;;;;7.03;5.15;;;7.30;99.90;;;;;;5113667;28;20043;-69
2022/11/17 07:33:27;;;;;;;6.38;5.45;;;7.40;99.90;;;;;;5113304;28;20080;-69
2022/11/17 07:35:53;;;;;;;6.53;5.50;;;7.30;99.90;;;;;;5113528;28;20086;-69
2022/11/17 07:38:19;;;;;;;5.65;5.05;;;7.30;99.90;;;;;;5113197;28;20047;-69
2022/11/17 07:40:44;;;;;;;5.75;5.25;;;7.30;99.90;;;;;;5113138;28;20031;-69
2022/11/17 07:43:10;;;;;;;5.53;5.03;;;7.40;99.90;;;;;;5112962;28;20047;-69
2022/11/17 07:45:36;;;;;;;6.20;4.90;;;7.30;99.90;;;;;;5113105;28;20039;-69
2022/11/17 07:48:04;;;;;;;6.90;5.15;;;7.40;99.90;;;;;;5113086;28;20037;-69
2022/11/17 07:50:31;;;;;;;5.78;5.18;;;7.40;99.90;;;;;;5114270;28;20065;-69
2022/11/17 07:52:56;;;;;;;5.03;4.53;;;7.30;99.90;;;;;;5113124;28;20040;-69
2022/11/17 07:55:23;;;;;;;5.85;5.22;;;7.40;99.90;;;;;;5112924;28;20547;-68
2022/11/17 07:58:00;;;;;;;6.45;4.97;;;7.40;99.90;;;;;;5114418;28;20040;-69
2022/11/17 08:00:28;;;;;;;6.57;5.00;;;7.40;99.90;;;;;;5112886;28;20040;-69
2022/11/17 08:02:54;;;;;;;5.85;5.00;;;7.40;99.90;;;;;;5112252;28;20488;-68
2022/11/17 08:05:20;;;;;;;5.20;4.70;;;7.40;99.90;;;;;;5112717;28;20047;-68
2022/11/17 08:07:56;;;;;;;5.35;4.85;;;7.40;99.90;;;;;;5112750;28;20035;-69
2022/11/17 08:10:25;;;;;;;7.65;5.22;;;7.40;99.90;;;;;;5112709;28;20428;-69
2022/11/17 08:12:52;;;;;;;6.00;5.07;;;7.40;99.90;;;;;;5112548;28;20534;-69
2022/11/17 08:15:18;;;;;;;5.35;4.80;;;7.40;99.90;;;;;;5112907;28;20035;-70
2022/11/17 08:17:43;;;;;;;11.18;5.20;;;7.40;99.90;;;;;;5112862;28;20480;-69
2022/11/17 08:20:11;;;;;;;6.47;4.90;;;7.40;99.90;;;;;;5112758;28;20048;-69
2022/11/17 08:22:37;;;;;;;5.97;5.38;;;7.40;99.90;;;;;;5112897;28;20092;-69
2022/11/17 08:25:03;;;;;;;5.72;5.13;;;7.40;99.90;;;;;;5112465;28;20438;-69
2022/11/17 08:27:28;;;;;;;5.43;4.88;;;7.40;99.90;;;;;;5112425;28;20119;-69
2022/11/17 08:29:54;;;;;;;6.28;5.35;;;7.40;99.90;;;;;;5112435;28;20067;-69
2022/11/17 08:32:19;;;;;;;7.28;5.15;;;7.40;99.90;;;;;;5112588;28;20089;-69
2022/11/17 08:34:45;;;;;;;6.78;5.90;;;7.40;99.90;;;;;;5112607;28;20515;-69
2022/11/17 08:37:10;;;;;;;7.65;5.07;;;7.40;99.90;;;;;;5112634;28;20475;-69
2022/11/17 08:39:36;;;;;;;7.20;5.60;;;7.40;99.90;;;;;;5095634;28;20511;-69
2022/11/17 08:42:01;;;;;;;7.00;5.32;;;7.40;99.90;;;;;;5113169;28;20412;-69
2022/11/17 08:44:27;;;;;;;7.18;5.90;;;7.40;99.90;;;;;;5112280;28;20047;-68
2022/11/17 08:46:53;;;;;;;5.72;5.05;;;7.40;99.90;;;;;;5112333;28;20105;-68
2022/11/17 08:49:18;;;;;;;5.65;4.75;;;7.40;99.90;;;;;;5112274;28;20039;-68
2022/11/17 08:51:44;;;;;;;6.70;5.20;;;7.40;99.90;;;;;;5112186;28;20039;-68
2022/11/17 08:54:11;;;;;;;5.55;4.97;;;7.40;99.90;;;;;;5112203;28;20079;-68
2022/11/17 08:56:37;;;;;;;5.97;5.30;;;7.40;99.90;;;;;;5112145;28;20389;-68
2022/11/17 08:59:02;;;;;;;5.63;5.07;;;7.40;99.90;;;;;;5112148;28;20043;-69
2022/11/17 09:01:28;;;;;;;6.28;5.63;;;7.40;99.90;;;;;;5112035;28;20037;-69
2022/11/17 09:03:54;;;;;;;5.90;5.05;;;7.40;99.90;;;;;;5112075;28;20077;-69
2022/11/17 09:06:19;;;;;;;5.40;4.88;;;7.40;99.90;;;;;;5112029;28;20040;-69
2022/11/17 09:08:45;;;;;;;5.82;5.20;;;7.40;99.90;;;;;;5112363;28;20031;-69
2022/11/17 09:11:11;;;;;;;5.93;5.05;;;7.40;99.90;;;;;;5111933;28;20377;-69
2022/11/17 09:13:37;;;;;;;5.68;4.70;;;7.40;99.90;;;;;;5112732;28;20035;-69
2022/11/17 09:16:05;;;;;;;5.72;5.03;;;7.40;99.90;;;;;;5116033;28;20040;-69
2022/11/17 09:18:32;;;;;;;6.43;5.53;;;7.40;99.90;;;;;;5116256;28;20035;-69
2022/11/17 09:21:03;;;;;;;5.28;4.78;;;7.40;99.90;;;;;;5116159;28;20455;-69
2022/11/17 09:23:30;;;;;;;5.68;5.10;;;7.50;99.90;;;;;;5117401;28;20040;-69
2022/11/17 09:25:56;;;;;;;5.88;4.90;;;7.50;99.90;;;;;;5117388;28;20035;-69
2022/11/17 09:28:25;;;;;;;7.28;5.03;;;7.40;99.90;;;;;;5115752;28;20039;-69
2022/11/17 09:30:52;;;;;;;5.63;5.03;;;7.50;99.90;;;;;;5117420;28;20075;-69
2022/11/17 09:33:18;;;;;;;6.55;5.47;;;7.50;99.90;;;;;;5115604;28;20389;-69
2022/11/17 09:35:44;;;;;;;6.35;5.18;;;7.50;99.90;;;;;;5115929;28;20039;-69
2022/11/17 09:38:09;;;;;;;5.25;4.60;;;7.50;99.90;;;;;;5115856;28;20126;-69
2022/11/17 09:40:38;;;;;;;8.02;5.32;;;7.50;99.90;;;;;;5115796;28;20517;-69
2022/11/17 09:43:26;;;;;;;4.70;4.20;;;7.50;99.90;;;;;;5116556;28;20071;-71
2022/11/17 09:45:58;;;;;;;5.13;4.55;;;7.50;99.90;;;;;;5098714;28;20031;-71
2022/11/17 09:48:41;;;;;;;5.10;4.47;;;7.50;99.90;;;;;;5098484;28;20476;-69
2022/11/17 09:51:13;;;;;;;6.68;4.82;;;7.50;99.90;;;;;;5115316;28;20502;-70
2022/11/17 09:53:49;;;;;;;5.00;4.35;;;7.40;99.90;;;;;;5115319;28;20483;-69
2022/11/17 09:56:15;;;;;;;5.88;3.95;;;7.50;99.90;;;;;;5117281;27;20050;-70
2022/11/17 09:58:52;;;;;;;4.55;3.90;;;7.50;99.90;;;;;;5115246;28;20066;-69
2022/11/17 10:01:20;;;;;;;4.95;3.90;;;7.50;99.90;;;;;;5115147;28;20458;-70
2022/11/17 10:03:48;;;;;;;4.80;4.10;;;7.50;99.90;;;;;;5115027;28;20527;-70
2022/11/17 10:06:18;;;;;;;4.80;4.07;;;7.50;99.90;;;;;;5115039;28;20458;-70
2022/11/17 10:09:02;;;;;;;4.53;3.70;;;7.50;99.90;;;;;;5115225;28;20488;-70
2022/11/17 10:11:41;;;;;;;4.00;3.60;;;7.60;99.90;;;;;;5114921;28;20059;-70
2022/11/17 10:14:07;;;;;;;5.25;4.03;;;7.60;99.90;;;;;;5114959;28;20535;-69
2022/11/17 10:16:33;;;;;;;5.20;4.10;;;7.60;99.90;;;;;;5114798;28;20130;-71
2022/11/17 10:19:17;;;;;;;5.10;4.20;;;7.60;99.90;;;;;;5116232;28;20043;-68
2022/11/17 10:21:44;;;;;;;4.20;3.80;;;7.60;99.90;;;;;;5115045;28;20047;-69
2022/11/17 10:24:09;;;;;;;5.07;4.20;;;7.60;99.90;;;;;;5114302;28;20051;-69
2022/11/17 10:26:47;;;;;;;4.57;3.97;;;7.60;99.90;;;;;;5114632;28;20044;-69
2022/11/17 10:29:21;;;;;;;4.15;3.58;;;7.60;99.90;;;;;;5114833;28;20085;-70
2022/11/17 10:31:47;;;;;;;4.00;3.30;;;7.60;99.90;;;;;;5115802;28;20036;-70
2022/11/17 10:34:33;;;;;;;5.18;3.72;;;7.60;99.90;;;;;;5114497;28;20048;-70
2022/11/17 10:37:25;;;;;;;3.97;3.58;;;7.60;99.90;;;;;;5114731;28;20093;-70
2022/11/17 10:40:13;;;;;;;4.50;4.10;;;7.60;99.90;;;;;;5115931;28;20051;-72
2022/11/17 10:42:43;;;;;;;3.72;3.30;;;7.60;99.90;;;;;;5097115;28;20044;-70
2022/11/17 10:45:16;;;;;;;4.60;3.53;;;7.60;99.90;;;;;;5116056;28;20047;-70
2022/11/17 10:47:41;;;;;;;3.97;3.63;;;7.60;99.90;;;;;;5114273;28;20519;-70
2022/11/17 10:50:26;;;;;;;4.35;3.95;;;7.60;99.90;;;;;;5115472;28;20035;-70
2022/11/17 10:52:54;;;;;;;4.10;3.55;;;7.70;99.90;;;;;;5114100;28;20044;-70
2022/11/17 10:55:32;;;;;;;4.07;3.38;;;7.70;99.90;;;;;;5114359;28;20109;-70
2022/11/17 10:58:26;;;;;;;4.65;3.88;;;7.80;99.90;;;;;;5114110;28;20051;-70
2022/11/17 11:00:56;;;;;;;;;;;7.80;99.90;;;;;;5114430;28;20404;-70
2022/11/17 11:03:25;;;;;;;3.72;3.08;;;7.80;99.90;;;;;;5113749;28;19999;-70
2022/11/17 11:05:58;;;;;;;3.38;3.08;;;7.80;99.90;;;;;;5114139;28;20058;-70
2022/11/17 11:08:37;;;;;;;3.35;2.80;;;7.80;99.90;;;;;;5113854;28;20035;-70
2022/11/17 11:11:12;;;;;;;3.30;2.65;;;7.80;99.90;;;;;;5114074;28;20047;-70
2022/11/17 11:13:48;;;;;;;3.80;2.78;;;7.90;99.90;;;;;;5113784;28;20044;-70
2022/11/17 11:16:14;;;;;;;3.97;3.05;;;7.90;99.90;;;;;;5113733;28;20051;-70
2022/11/17 11:18:39;;;;;;;2.67;2.42;;;7.90;99.90;;;;;;5113941;28;20050;-70
2022/11/17 11:21:16;;;;;;;2.80;2.40;;;7.90;99.90;;;;;;5115130;28;20089;-70
2022/11/17 11:23:50;;;;;;;2.85;2.33;;;7.90;99.90;;;;;;5113478;28;20373;-69
2022/11/17 11:26:34;;;;;;;3.35;2.63;;;7.90;99.90;;;;;;5113510;28;20071;-69
2022/11/17 11:29:10;;;;;;;3.83;2.25;;;7.90;99.90;;;;;;5113386;28;20071;-69
2022/11/17 11:31:56;;;;;;;4.05;2.60;;;8.00;99.90;;;;;;5115051;28;20042;-70
2022/11/17 11:34:53;;;;;;;4.85;2.80;;;8.00;99.90;;;;;;5113331;28;20510;-70
2022/11/17 11:37:21;;;;;;;2.85;2.55;;;8.00;99.90;;;;;;5112664;28;20047;-70
2022/11/17 11:40:02;;;;;;;4.35;2.97;;;8.00;99.90;;;;;;5113259;28;20499;-70
2022/11/17 11:42:42;;;;;;;3.88;2.83;;;8.00;99.90;;;;;;5112890;28;20400;-70
2022/11/17 11:45:28;;;;;;;3.85;2.53;;;7.90;99.90;;;;;;5113447;28;20039;-70
2022/11/17 11:48:18;;;;;;;3.35;2.70;;;8.00;99.90;;;;;;5113399;28;20373;-70
2022/11/17 11:51:06;;;;;;;3.50;2.85;;;8.00;99.90;;;;;;5113334;28;20071;-70
2022/11/17 11:53:50;;;;;;;2.80;2.40;;;8.00;99.90;;;;;;5113013;28;20071;-70
2022/11/17 11:56:29;;;;;;;3.35;3.00;;;8.00;99.90;;;;;;5114227;28;20034;-70
2022/11/17 11:59:05;;;;;;;3.85;3.20;;;8.10;99.90;;;;;;5112907;28;20043;-70
2022/11/17 12:01:42;;;;;;;3.97;3.10;;;8.10;99.90;;;;;;5112848;28;20039;-72
2022/11/17 12:04:22;;;;;;;4.22;2.88;;;8.00;99.90;;;;;;5112825;28;20058;-72
2022/11/17 12:06:55;;;;;;;2.80;2.15;;;8.10;99.90;;;;;;5096084;28;20035;-72
2022/11/17 12:09:43;;;;;;;3.55;2.55;;;8.10;99.90;;;;;;5112773;28;20095;-70
2022/11/17 12:12:14;;;;;;;3.40;2.30;;;8.10;99.90;;;;;;5112718;28;20050;-70
2022/11/17 12:15:16;;;;;;;2.95;2.28;;;8.20;99.90;;;;;;5112676;28;20045;-70
2022/11/17 12:18:17;;;;;;;4.50;2.72;;;8.20;99.90;;;;;;5112616;28;20407;-70
2022/11/17 12:20:56;;;;;;;3.83;2.80;;;8.20;99.90;;;;;;5080504;28;20043;-70
2022/11/17 12:24:08;;;;;;;4.68;3.00;;;8.30;99.90;;;;;;5112507;28;20039;-70
2022/11/17 12:26:35;;;;;;;4.25;3.28;;;8.30;99.90;;;;;;5014747;28;20049;-70
2022/11/17 12:29:19;;;;;;;3.58;3.05;;;8.30;99.90;;;;;;5014903;28;20124;-70
2022/11/17 12:31:49;;;;;;;4.15;3.20;;;8.40;99.90;;;;;;5077188;28;20051;-70
2022/11/17 12:34:22;;;;;;;6.00;4.10;;;8.40;99.90;;;;;;5112828;28;20130;-70
2022/11/17 12:37:04;;;;;;;;;;;8.50;99.90;;;;;;5112878;28;20052;-70
2022/11/17 12:40:08;;;;;;;5.53;3.40;;;8.50;99.90;;;;;;5112367;28;19926;-70
2022/11/17 12:42:34;;;;;;;;;;;8.60;99.90;;;;;;5112506;28;20051;-70
2022/11/17 12:45:04;;;;;;;5.25;3.88;;;8.60;99.90;;;;;;5112427;28;19919;-70
2022/11/17 12:47:38;;;;;;;7.85;3.88;;;8.60;99.90;;;;;;5112774;28;20040;-69
2022/11/17 12:50:07;;;;;;;6.70;4.30;;;8.70;99.90;;;;;;5118343;28;20511;-69
2022/11/17 12:52:51;;;;;;;6.18;3.92;;;8.80;99.90;;;;;;5116620;28;20055;-70
2022/11/17 12:55:29;;;;;;;7.70;4.28;;;8.90;99.90;;;;;;5116438;28;20423;-70
2022/11/17 12:58:04;;;;;;;4.95;4.25;;;8.90;99.90;;;;;;5117805;28;20039;-70
2022/11/17 13:00:43;;;;;;;6.25;4.68;;;9.00;99.90;;;;;;5116416;28;20046;-70
2022/11/17 13:03:18;;;;;;;7.70;4.38;;;9.00;99.90;;;;;;5116207;28;20043;-69
2022/11/17 13:05:43;;;;;;;8.32;4.30;;;9.10;99.90;;;;;;5116422;28;20047;-69
2022/11/17 13:08:22;;;;;;;6.78;5.30;;;9.10;99.90;;;;;;5116446;28;20381;-69
2022/11/17 13:10:49;;;;;;;7.60;4.72;;;9.10;99.90;;;;;;5117653;28;20134;-69
2022/11/17 13:13:23;;;;;;;6.75;4.65;;;9.10;99.90;;;;;;5099041;28;20480;-70
2022/11/17 13:15:51;;;;;;;7.03;4.28;;;9.20;99.90;;;;;;5116096;28;20035;-70
2022/11/17 13:18:29;;;;;;;7.53;5.57;;;9.20;99.90;;;;;;5116055;28;20092;-70
2022/11/17 13:20:55;;;;;;;6.70;4.43;;;9.20;99.90;;;;;;5115960;28;20496;-70
2022/11/17 13:23:24;;;;;;;6.68;5.97;;;9.20;99.90;;;;;;5115769;28;20046;-70
2022/11/17 13:26:06;;;;;;;7.68;5.18;;;9.30;99.90;;;;;;5115887;28;20048;-70
2022/11/17 13:28:32;;;;;;;9.65;5.80;;;9.30;99.90;;;;;;5116232;28;20051;-70
2022/11/17 13:30:59;;;;;;;11.07;7.07;;;9.30;99.90;;;;;;5115803;28;20041;-70
2022/11/17 13:33:25;;;;;;;7.43;5.88;;;9.30;99.90;;;;;;5115643;28;20077;-70
2022/11/17 13:36:15;;;;;;;10.55;6.40;;;9.40;99.90;;;;;;5115774;28;20040;-70
2022/11/17 13:38:59;;;;;;;10.38;7.45;;;9.40;99.90;;;;;;5115518;28;20576;-70